Time;durP1;ratioP1;P1;durP2;ratioP2;P2;SDS_P1;SDS_P2;PMS_P1;PMS_P2;Temp;Humidity;BMP_temperature;BMP_pressure;BME280_temperature;BME280_humidity;BME280_pressure;Samples;Min_cycle;Max_cycle;Signal;HPM_P1;HPM_P2
2021/05/31 17:29:43;;;;;;;7.13;5.05;;;;;;;17.24;27.90;95687.88;4999679;28;20417;-70
2021/05/31 17:34:52;;;;;;;58.65;48.63;;;;;;;20.12;22.48;95688.28;5000537;28;20125;-69
2021/05/31 17:37:18;;;;;;;31.23;25.88;;;;;;;20.91;21.56;95689.50;4998601;28;20034;-69
2021/05/31 17:39:43;;;;;;;23.98;19.95;;;;;;;21.46;20.58;95683.97;5000145;28;20050;-69
2021/05/31 17:42:09;;;;;;;19.60;16.08;;;;;;;21.89;20.15;95684.16;4999850;28;20030;-70
2021/05/31 17:44:35;;;;;;;19.90;16.48;;;;;;;22.21;19.67;95685.63;5000486;28;20424;-70
2021/05/31 17:47:00;;;;;;;29.98;23.60;;;;;;;22.42;20.02;95681.66;4999279;28;20636;-70
2021/05/31 17:49:26;;;;;;;161.00;126.05;;;;;;;22.64;19.97;95680.44;5000923;28;20030;-70
2021/05/31 17:51:51;;;;;;;43.08;36.72;;;;;;;22.84;19.86;95677.63;5001705;28;20093;-70
2021/05/31 17:54:16;;;;;;;34.90;30.67;;;;;;;23.01;19.62;95689.84;4999413;28;20078;-69
2021/05/31 17:56:42;;;;;;;37.25;31.08;;;;;;;23.09;19.40;95683.59;5000124;28;20033;-70
2021/05/31 17:59:08;;;;;;;32.92;27.33;;;;;;;23.18;19.54;95682.22;4998781;28;20034;-69
2021/05/31 18:01:33;;;;;;;29.85;25.23;;;;;;;23.27;19.51;95688.88;5008720;28;20026;-70
2021/05/31 18:03:59;;;;;;;30.20;25.92;;;;;;;23.32;19.50;95679.09;4977131;28;20038;-70
2021/05/31 18:06:27;;;;;;;28.38;24.85;;;;;;;23.38;19.08;95682.97;4975390;28;20397;-70
2021/05/31 18:08:53;;;;;;;26.98;23.95;;;;;;;23.45;19.16;95679.22;4977019;28;20057;-70
2021/05/31 18:11:18;;;;;;;28.05;24.48;;;;;;;23.50;19.27;95670.22;4979414;28;20404;-69
2021/05/31 18:13:44;;;;;;;25.83;22.55;;;;;;;23.54;19.11;95685.09;4981084;28;20034;-70
2021/05/31 18:16:12;;;;;;;27.08;24.17;;;;;;;23.57;19.44;95677.75;4979751;28;20038;-70
2021/05/31 18:18:37;;;;;;;27.63;22.57;;;;;;;23.63;18.96;95676.00;4974996;28;20138;-70
2021/05/31 18:21:03;;;;;;;24.85;21.88;;;;;;;23.65;19.35;95675.56;4980917;28;20442;-70
2021/05/31 18:23:28;;;;;;;23.60;21.10;;;;;;;23.69;18.83;95677.06;4979965;28;20050;-70
2021/05/31 18:25:54;;;;;;;24.02;21.10;;;;;;;23.71;19.30;95679.44;4980608;28;20650;-70
2021/05/31 18:28:19;;;;;;;23.98;21.40;;;;;;;23.81;19.33;95675.56;4974380;28;20054;-70
2021/05/31 18:30:45;;;;;;;24.27;20.45;;;;;;;23.86;19.39;95672.22;4980229;28;20026;-70
2021/05/31 18:33:13;;;;;;;22.85;20.50;;;;;;;23.87;19.20;95676.63;4973799;28;20031;-70
2021/05/31 18:35:56;;;;;;;25.08;21.42;;;;;;;23.88;19.35;95680.28;4957810;28;20400;-69
2021/05/31 18:38:21;;;;;;;22.63;20.10;;;;;;;23.89;19.00;95679.81;4975431;28;20030;-69
2021/05/31 18:40:47;;;;;;;22.92;20.48;;;;;;;23.91;18.86;95685.81;4963797;28;20050;-69
2021/05/31 18:43:12;;;;;;;22.33;19.92;;;;;;;23.97;19.02;95682.47;4966783;28;20327;-69
2021/05/31 18:45:38;;;;;;;22.00;19.70;;;;;;;24.01;19.18;95688.84;4966283;28;20034;-69
2021/05/31 18:48:04;;;;;;;21.13;18.85;;;;;;;24.03;19.28;95684.38;4965989;28;20485;-69
2021/05/31 18:50:29;;;;;;;20.58;18.38;;;;;;;24.05;19.10;95689.56;4966308;28;20113;-69
2021/05/31 18:52:55;;;;;;;20.35;18.20;;;;;;;24.06;19.33;95686.31;4966297;28;20745;-69
2021/05/31 18:55:20;;;;;;;22.00;19.73;;;;;;;24.07;18.83;95684.28;4965207;28;20038;-69
2021/05/31 18:57:46;;;;;;;20.80;18.60;;;;;;;24.07;19.02;95692.78;4957976;28;20110;-69
2021/05/31 19:00:12;;;;;;;20.52;18.42;;;;;;;24.07;18.91;95690.72;4964934;28;20416;-69
2021/05/31 19:02:37;;;;;;;20.05;17.92;;;;;;;24.08;19.40;95683.84;4967210;28;20034;-70
2021/05/31 19:05:06;;;;;;;19.15;17.17;;;;;;;24.09;19.33;95690.28;4965111;28;20081;-70
2021/05/31 19:07:35;;;;;;;18.30;16.40;;;;;;;24.08;19.10;95677.38;4967083;28;20122;-70
2021/05/31 19:10:01;;;;;;;18.92;16.92;;;;;;;24.13;19.29;95696.66;4965702;28;20086;-70
2021/05/31 19:12:26;;;;;;;18.77;16.88;;;;;;;24.13;18.98;95690.22;4965844;28;20046;-69
2021/05/31 19:14:52;;;;;;;18.98;16.98;;;;;;;24.12;19.45;95689.41;4957155;28;20034;-69
2021/05/31 19:17:18;;;;;;;18.65;16.65;;;;;;;24.15;18.92;95693.41;4962447;28;20035;-69
2021/05/31 19:19:43;;;;;;;18.13;16.23;;;;;;;24.17;18.93;95688.06;4959045;28;20110;-69
2021/05/31 19:22:09;;;;;;;18.65;16.70;;;;;;;24.19;19.40;95688.44;4962941;28;20035;-69
2021/05/31 19:24:35;;;;;;;18.45;16.50;;;;;;;24.20;19.38;95688.00;4962423;28;20543;-69
2021/05/31 19:27:00;;;;;;;18.83;15.20;;;;;;;24.19;19.12;95689.22;4967447;28;20081;-69
2021/05/31 19:29:26;;;;;;;17.73;15.90;;;;;;;24.21;19.11;95698.06;4966231;28;20066;-69
2021/05/31 19:31:52;;;;;;;17.90;16.10;;;;;;;24.26;19.01;95693.91;4965788;28;20031;-69
2021/05/31 19:34:18;;;;;;;16.00;14.30;;;;;;;24.24;19.39;95690.72;4961050;28;20110;-69
2021/05/31 19:36:44;;;;;;;16.35;14.65;;;;;;;24.25;19.37;95689.50;4961344;28;20053;-69
2021/05/31 19:39:11;;;;;;;17.25;14.55;;;;;;;24.25;19.39;95695.16;4963908;28;20026;-69
2021/05/31 19:41:36;;;;;;;16.23;14.50;;;;;;;24.23;18.97;95695.59;4965017;28;20425;-69
2021/05/31 19:44:02;;;;;;;16.60;14.90;;;;;;;24.22;19.26;95705.34;4963666;28;20023;-69
2021/05/31 19:46:28;;;;;;;16.30;14.40;;;;;;;24.21;18.93;95694.44;4964145;28;20038;-69
2021/05/31 19:48:53;;;;;;;14.48;13.07;;;;;;;24.21;18.84;95708.63;4961379;28;20023;-69
2021/05/31 19:51:32;;;;;;;14.80;13.30;;;;;;;24.21;18.95;95698.06;4960862;28;20066;-69
2021/05/31 19:54:17;;;;;;;14.70;13.30;;;;;;;24.18;19.19;95706.66;4961052;28;20330;-69
2021/05/31 20:02:20;;;;;;;14.43;12.93;;;;;;;24.15;19.01;95716.84;4965113;28;20099;-69
2021/05/31 20:04:48;;;;;;;14.52;13.10;;;;;;;24.12;19.01;95720.56;4965638;28;20055;-69
2021/05/31 20:09:48;;;;;;;13.93;12.52;;;;;;;24.13;19.08;95722.16;4943391;28;20051;-68
2021/05/31 20:12:14;;;;;;;14.32;12.93;;;;;;;24.13;18.93;95716.47;4966785;28;20129;-69
2021/05/31 20:14:43;;;;;;;13.00;11.70;;;;;;;24.12;19.18;95717.75;4965246;28;20183;-70
2021/05/31 20:17:08;;;;;;;;;;;;;;;24.16;19.39;95721.28;4933642;28;20538;-70
2021/05/31 20:19:35;;;;;;;12.65;11.45;;;;;;;24.16;19.19;95724.13;4963334;28;19918;-69
2021/05/31 20:22:02;;;;;;;12.68;11.38;;;;;;;24.12;19.34;95712.06;4947895;28;20034;-69
2021/05/31 20:24:28;;;;;;;13.00;11.70;;;;;;;24.10;19.07;95704.00;4960191;28;20109;-70
2021/05/31 20:26:53;;;;;;;12.98;11.55;;;;;;;24.11;19.00;95710.47;4957876;28;20040;-69
2021/05/31 20:29:19;;;;;;;13.45;12.10;;;;;;;24.08;18.92;95709.31;4965054;28;20043;-69
2021/05/31 20:31:45;;;;;;;12.25;11.05;;;;;;;24.13;19.28;95710.03;4964808;28;20062;-69
2021/05/31 20:34:12;;;;;;;12.52;11.32;;;;;;;24.09;19.07;95710.09;4965356;28;20031;-70
2021/05/31 20:36:38;;;;;;;12.15;10.95;;;;;;;24.07;19.03;95713.38;4964432;28;20030;-70
2021/05/31 20:39:03;;;;;;;11.50;10.38;;;;;;;24.05;19.43;95710.22;4961437;28;20038;-69
2021/05/31 20:41:29;;;;;;;11.68;10.57;;;;;;;24.06;19.40;95708.97;4962456;28;20512;-70
2021/05/31 20:43:54;;;;;;;11.73;10.52;;;;;;;24.06;18.91;95705.34;4963150;28;20039;-70
2021/05/31 20:46:22;;;;;;;12.38;11.07;;;;;;;24.04;19.09;95705.00;4963463;28;20113;-69
2021/05/31 20:48:47;;;;;;;11.35;10.15;;;;;;;24.05;18.89;95703.75;4962350;28;20089;-69
2021/05/31 20:51:13;;;;;;;11.55;10.43;;;;;;;24.06;19.37;95705.34;4957832;28;20054;-69
2021/05/31 20:53:38;;;;;;;11.73;10.52;;;;;;;24.05;18.99;95700.91;4961368;28;20039;-69
2021/05/31 20:56:04;;;;;;;11.30;10.20;;;;;;;24.06;18.92;95705.34;4955926;28;20559;-69
2021/05/31 20:58:29;;;;;;;11.25;10.18;;;;;;;24.06;19.03;95708.16;4964730;28;20181;-69
2021/05/31 21:00:55;;;;;;;11.02;10.00;;;;;;;24.04;19.18;95705.78;4964962;28;20043;-70
2021/05/31 21:03:20;;;;;;;12.38;11.13;;;;;;;24.02;18.99;95705.38;4965033;28;20041;-70
2021/05/31 21:05:46;;;;;;;11.02;10.02;;;;;;;24.02;19.15;95701.78;4959094;28;20042;-70
2021/05/31 21:08:15;;;;;;;11.63;10.48;;;;;;;24.01;19.30;95705.84;4964960;28;20069;-70
2021/05/31 21:10:43;;;;;;;11.80;9.93;;;;;;;24.01;18.82;95712.31;4936997;28;20023;-70
2021/05/31 21:13:11;;;;;;;11.55;10.45;;;;;;;24.02;18.86;95707.44;4959310;28;20382;-70
2021/05/31 21:15:38;;;;;;;12.52;10.50;;;;;;;24.01;18.75;95708.66;4952466;28;20035;-70
2021/05/31 21:18:05;;;;;;;11.23;10.13;;;;;;;24.00;19.09;95704.22;4957443;28;20114;-70
2021/05/31 21:20:31;;;;;;;11.07;9.95;;;;;;;24.00;19.29;95704.22;4944902;28;20045;-70
2021/05/31 21:23:07;;;;;;;11.00;9.90;;;;;;;23.99;18.87;95708.31;4963055;28;20125;-70
2021/05/31 21:25:33;;;;;;;10.32;9.32;;;;;;;24.00;18.75;95705.03;4971400;28;20026;-70
2021/05/31 21:27:59;;;;;;;10.05;9.07;;;;;;;24.01;18.92;95706.66;4964334;28;20043;-70
2021/05/31 21:30:25;;;;;;;10.27;9.27;;;;;;;24.01;18.72;95706.66;4972847;28;20064;-70
2021/05/31 21:32:51;;;;;;;10.40;9.30;;;;;;;24.03;19.14;95714.72;4956179;28;20062;-70
2021/05/31 21:35:16;;;;;;;10.13;9.13;;;;;;;24.00;19.04;95721.22;4966263;28;20046;-70
2021/05/31 21:37:42;;;;;;;10.13;8.90;;;;;;;24.00;18.87;95718.38;4957045;28;20495;-70
2021/05/31 21:40:09;;;;;;;9.55;8.65;;;;;;;23.97;18.94;95720.09;4967457;28;20467;-70
2021/05/31 21:42:34;;;;;;;10.07;9.13;;;;;;;23.98;18.70;95710.34;4945110;29;20054;-70
2021/05/31 21:44:59;;;;;;;10.05;9.10;;;;;;;23.98;18.62;95712.38;4959444;28;20232;-70
2021/05/31 21:47:25;;;;;;;9.65;8.75;;;;;;;23.97;19.01;95714.44;4960162;28;20031;-70
2021/05/31 21:49:50;;;;;;;9.27;8.38;;;;;;;23.96;18.85;95712.84;4965193;28;20046;-70
2021/05/31 21:52:16;;;;;;;9.25;8.45;;;;;;;23.96;18.66;95710.00;4967146;28;20039;-70
2021/05/31 21:54:41;;;;;;;9.27;8.38;;;;;;;23.95;18.84;95712.00;4960008;28;20058;-70
2021/05/31 21:57:07;;;;;;;9.45;8.55;;;;;;;23.96;18.63;95715.66;4960506;28;20034;-71
2021/05/31 21:59:33;;;;;;;8.45;7.68;;;;;;;23.96;19.15;95712.84;4975256;28;20034;-71
2021/05/31 22:01:59;;;;;;;9.57;8.68;;;;;;;23.95;18.75;95706.34;4962858;28;20034;-70
2021/05/31 22:04:24;;;;;;;9.20;8.30;;;;;;;23.94;18.97;95713.28;4966879;28;20424;-70
2021/05/31 22:06:50;;;;;;;7.97;7.18;;;;;;;23.93;19.04;95706.00;4964268;28;20050;-70
2021/05/31 22:09:15;;;;;;;8.32;7.53;;;;;;;23.94;18.98;95712.47;4966361;28;20034;-70
2021/05/31 22:11:41;;;;;;;8.80;7.90;;;;;;;23.93;19.05;95706.00;4965475;28;20081;-70
2021/05/31 22:19:19;;;;;;;8.55;7.75;;;;;;;23.92;18.92;95701.59;4970554;28;20037;-69
2021/05/31 22:21:47;;;;;;;8.77;7.95;;;;;;;23.94;18.88;95701.13;4970691;28;20023;-69
2021/05/31 22:24:12;;;;;;;8.13;7.32;;;;;;;23.93;19.12;95703.19;4970319;28;20255;-69
2021/05/31 22:26:38;;;;;;;8.25;7.45;;;;;;;23.92;19.02;95709.28;4969542;28;20043;-69
2021/05/31 22:31:47;;;;;;;8.82;8.02;;;;;;;23.92;19.05;95701.59;4968226;28;20121;-70
2021/05/31 22:34:13;;;;;;;8.35;7.60;;;;;;;23.91;18.95;95708.47;4968774;28;20034;-70
2021/05/31 22:36:38;;;;;;;7.68;6.95;;;;;;;23.90;19.05;95706.09;4951508;28;20042;-70
2021/05/31 22:39:18;;;;;;;7.55;6.80;;;;;;;23.89;18.72;95702.47;4964622;28;20027;-70
2021/05/31 22:41:58;;;;;;;8.18;7.47;;;;;;;23.89;19.10;95701.69;4967088;28;20054;-69
2021/05/31 23:13:42;;;;;;;7.90;7.20;;;;;;;23.87;18.47;95690.78;4966306;28;20538;-69
2021/05/31 23:16:07;;;;;;;7.68;6.97;;;;;;;23.85;18.94;95689.63;4962264;28;20039;-69
2021/05/31 23:18:33;;;;;;;8.93;8.02;;;;;;;23.82;19.07;95685.66;4964228;28;20043;-69
2021/05/31 23:20:59;;;;;;;8.15;7.45;;;;;;;23.83;18.69;95690.06;4964836;28;20026;-69
2021/05/31 23:23:24;;;;;;;8.05;7.32;;;;;;;23.83;19.04;95690.06;4974959;28;20043;-69
2021/05/31 23:25:50;;;;;;;7.70;7.00;;;;;;;23.83;18.85;95680.78;4965702;28;20054;-69
2021/05/31 23:28:15;;;;;;;8.38;7.45;;;;;;;23.85;18.52;95681.94;4967111;28;20626;-69
2021/05/31 23:30:41;;;;;;;8.02;7.22;;;;;;;23.85;19.09;95684.78;4964961;28;20046;-69
2021/05/31 23:33:06;;;;;;;7.47;6.78;;;;;;;23.87;18.49;95685.13;4966928;28;20031;-69
2021/05/31 23:35:31;;;;;;;7.45;6.75;;;;;;;23.87;18.62;95681.50;4966843;28;20344;-69
2021/05/31 23:37:57;;;;;;;7.85;7.05;;;;;;;23.87;18.85;95690.00;4967033;28;20033;-69
2021/05/31 23:40:24;;;;;;;7.50;6.80;;;;;;;23.87;19.04;95685.13;4959965;28;20023;-69
2021/05/31 23:42:49;;;;;;;7.78;7.07;;;;;;;23.86;18.99;95689.22;4965627;28;20050;-69
2021/05/31 23:45:15;;;;;;;7.88;7.18;;;;;;;23.85;18.55;95686.78;4966234;28;20439;-69
2021/05/31 23:47:41;;;;;;;7.63;6.93;;;;;;;23.82;18.64;95682.03;4965411;28;20185;-69
2021/05/31 23:50:07;;;;;;;7.20;6.55;;;;;;;23.82;18.71;95684.84;4967025;28;20504;-69
2021/05/31 23:52:32;;;;;;;7.75;7.05;;;;;;;23.85;18.77;95681.13;4967618;28;20035;-69
2021/05/31 23:54:58;;;;;;;6.93;6.22;;;;;;;23.83;18.57;95694.94;4960370;28;20030;-69
2021/05/31 23:57:23;;;;;;;7.78;7.07;;;;;;;23.82;18.98;95688.50;4957773;28;20078;-70
2021/05/31 23:59:49;;;;;;;7.72;7.03;;;;;;;23.84;18.72;95683.19;4967826;28;20030;-70
